sensor_id;sensor_type;location;lat;lon;timestamp;P1;durP1;ratioP1;P2;durP2;ratioP2
43152;SDS011;28756;49.064;9.290;2022-09-27T00:01:01;0.40;;;0.40;;
43152;SDS011;28756;49.064;9.290;2022-09-27T00:03:29;0.43;;;0.30;;
43152;SDS011;28756;49.064;9.290;2022-09-27T00:08:37;0.50;;;0.35;;
43152;SDS011;28756;49.064;9.290;2022-09-27T00:11:03;0.50;;;0.50;;
43152;SDS011;28756;49.064;9.290;2022-09-27T00:13:51;1.92;;;0.35;;
43152;SDS011;28756;49.064;9.290;2022-09-27T00:16:23;1.70;;;0.50;;
43152;SDS011;28756;49.064;9.290;2022-09-27T00:19:03;1.08;;;0.50;;
43152;SDS011;28756;49.064;9.290;2022-09-27T00:21:40;1.48;;;0.35;;
43152;SDS011;28756;49.064;9.290;2022-09-27T00:24:10;0.70;;;0.50;;
43152;SDS011;28756;49.064;9.290;2022-09-27T00:26:38;0.70;;;0.50;;
43152;SDS011;28756;49.064;9.290;2022-09-27T00:29:04;1.00;;;0.60;;
43152;SDS011;28756;49.064;9.290;2022-09-27T00:31:30;1.27;;;0.60;;
43152;SDS011;28756;49.064;9.290;2022-09-27T00:33:57;1.05;;;0.45;;
43152;SDS011;28756;49.064;9.290;2022-09-27T00:36:26;0.65;;;0.50;;
43152;SDS011;28756;49.064;9.290;2022-09-27T00:38:53;0.98;;;0.65;;
43152;SDS011;28756;49.064;9.290;2022-09-27T00:41:24;1.08;;;0.60;;
43152;SDS011;28756;49.064;9.290;2022-09-27T00:43:57;1.85;;;0.60;;
43152;SDS011;28756;49.064;9.290;2022-09-27T00:49:35;0.47;;;0.40;;
43152;SDS011;28756;49.064;9.290;2022-09-27T00:52:07;0.60;;;0.50;;
43152;SDS011;28756;49.064;9.290;2022-09-27T00:55:06;1.00;;;0.60;;
43152;SDS011;28756;49.064;9.290;2022-09-27T00:57:45;1.40;;;0.50;;
43152;SDS011;28756;49.064;9.290;2022-09-27T01:00:13;1.05;;;0.50;;
43152;SDS011;28756;49.064;9.290;2022-09-27T01:02:40;1.85;;;0.60;;
43152;SDS011;28756;49.064;9.290;2022-09-27T01:05:15;1.25;;;0.50;;
43152;SDS011;28756;49.064;9.290;2022-09-27T01:07:45;1.58;;;0.50;;
43152;SDS011;28756;49.064;9.290;2022-09-27T01:10:11;1.55;;;0.60;;
43152;SDS011;28756;49.064;9.290;2022-09-27T01:23:32;1.70;;;0.50;;
43152;SDS011;28756;49.064;9.290;2022-09-27T01:25:51;1.00;;;0.50;;
43152;SDS011;28756;49.064;9.290;2022-09-27T01:31:47;0.40;;;0.40;;
43152;SDS011;28756;49.064;9.290;2022-09-27T01:34:48;0.50;;;0.40;;
43152;SDS011;28756;49.064;9.290;2022-09-27T01:38:00;0.50;;;0.40;;
43152;SDS011;28756;49.064;9.290;2022-09-27T01:43:49;0.40;;;0.30;;
43152;SDS011;28756;49.064;9.290;2022-09-27T01:46:35;0.47;;;0.40;;
43152;SDS011;28756;49.064;9.290;2022-09-27T01:49:17;0.93;;;0.40;;
43152;SDS011;28756;49.064;9.290;2022-09-27T01:51:51;1.17;;;0.50;;
43152;SDS011;28756;49.064;9.290;2022-09-27T01:54:39;0.93;;;0.40;;
43152;SDS011;28756;49.064;9.290;2022-09-27T01:57:18;1.33;;;0.50;;
43152;SDS011;28756;49.064;9.290;2022-09-27T01:59:53;0.30;;;0.30;;
43152;SDS011;28756;49.064;9.290;2022-09-27T02:02:25;0.95;;;0.40;;
43152;SDS011;28756;49.064;9.290;2022-09-27T02:04:55;1.08;;;0.40;;
43152;SDS011;28756;49.064;9.290;2022-09-27T02:07:28;0.45;;;0.25;;
43152;SDS011;28756;49.064;9.290;2022-09-27T02:10:11;1.85;;;0.30;;
43152;SDS011;28756;49.064;9.290;2022-09-27T02:12:51;0.40;;;0.40;;
43152;SDS011;28756;49.064;9.290;2022-09-27T02:16:03;0.68;;;0.40;;
43152;SDS011;28756;49.064;9.290;2022-09-27T02:18:53;0.50;;;0.40;;
43152;SDS011;28756;49.064;9.290;2022-09-27T02:21:36;6.07;;;0.40;;
43152;SDS011;28756;49.064;9.290;2022-09-27T02:24:12;1.42;;;0.75;;
43152;SDS011;28756;49.064;9.290;2022-09-27T02:26:45;1.30;;;0.47;;
43152;SDS011;28756;49.064;9.290;2022-09-27T02:29:27;0.93;;;0.55;;
43152;SDS011;28756;49.064;9.290;2022-09-27T02:32:03;0.65;;;0.38;;
43152;SDS011;28756;49.064;9.290;2022-09-27T02:34:29;1.02;;;0.70;;
43152;SDS011;28756;49.064;9.290;2022-09-27T02:36:58;1.23;;;0.50;;
43152;SDS011;28756;49.064;9.290;2022-09-27T02:39:24;4.97;;;0.85;;
43152;SDS011;28756;49.064;9.290;2022-09-27T02:41:51;4.35;;;1.20;;
43152;SDS011;28756;49.064;9.290;2022-09-27T02:44:16;1.20;;;0.65;;
43152;SDS011;28756;49.064;9.290;2022-09-27T02:53:07;0.90;;;0.60;;
43152;SDS011;28756;49.064;9.290;2022-09-27T02:56:00;3.95;;;0.90;;
43152;SDS011;28756;49.064;9.290;2022-09-27T02:59:00;2.60;;;0.75;;
43152;SDS011;28756;49.064;9.290;2022-09-27T03:02:03;2.90;;;1.02;;
43152;SDS011;28756;49.064;9.290;2022-09-27T03:04:55;3.63;;;1.30;;
43152;SDS011;28756;49.064;9.290;2022-09-27T03:07:32;3.25;;;1.00;;
43152;SDS011;28756;49.064;9.290;2022-09-27T03:09:59;4.07;;;1.08;;
43152;SDS011;28756;49.064;9.290;2022-09-27T03:12:24;5.45;;;1.17;;
43152;SDS011;28756;49.064;9.290;2022-09-27T03:14:51;3.42;;;1.17;;
43152;SDS011;28756;49.064;9.290;2022-09-27T03:17:22;4.75;;;1.08;;
43152;SDS011;28756;49.064;9.290;2022-09-27T03:19:49;4.30;;;1.15;;
43152;SDS011;28756;49.064;9.290;2022-09-27T03:22:14;3.30;;;0.90;;
43152;SDS011;28756;49.064;9.290;2022-09-27T03:24:40;4.07;;;1.10;;
43152;SDS011;28756;49.064;9.290;2022-09-27T03:27:07;10.98;;;1.10;;
43152;SDS011;28756;49.064;9.290;2022-09-27T03:29:34;6.20;;;1.48;;
43152;SDS011;28756;49.064;9.290;2022-09-27T03:32:00;2.70;;;0.95;;
43152;SDS011;28756;49.064;9.290;2022-09-27T03:34:27;4.28;;;1.27;;
43152;SDS011;28756;49.064;9.290;2022-09-27T03:36:53;4.95;;;1.30;;
43152;SDS011;28756;49.064;9.290;2022-09-27T03:39:20;6.05;;;1.83;;
43152;SDS011;28756;49.064;9.290;2022-09-27T03:41:46;5.25;;;1.35;;
43152;SDS011;28756;49.064;9.290;2022-09-27T03:44:11;2.92;;;1.10;;
43152;SDS011;28756;49.064;9.290;2022-09-27T03:46:37;4.10;;;1.27;;
43152;SDS011;28756;49.064;9.290;2022-09-27T03:49:03;3.65;;;1.02;;
43152;SDS011;28756;49.064;9.290;2022-09-27T03:51:29;4.65;;;1.35;;
43152;SDS011;28756;49.064;9.290;2022-09-27T03:53:55;6.03;;;1.30;;
43152;SDS011;28756;49.064;9.290;2022-09-27T03:56:21;3.50;;;1.15;;
43152;SDS011;28756;49.064;9.290;2022-09-27T03:58:47;3.20;;;1.20;;
43152;SDS011;28756;49.064;9.290;2022-09-27T04:01:13;1.92;;;1.00;;
43152;SDS011;28756;49.064;9.290;2022-09-27T04:03:39;2.50;;;1.20;;
43152;SDS011;28756;49.064;9.290;2022-09-27T04:06:05;2.72;;;1.27;;
43152;SDS011;28756;49.064;9.290;2022-09-27T04:08:31;3.97;;;1.40;;
43152;SDS011;28756;49.064;9.290;2022-09-27T04:10:56;3.15;;;1.35;;
43152;SDS011;28756;49.064;9.290;2022-09-27T04:13:22;4.07;;;1.52;;
43152;SDS011;28756;49.064;9.290;2022-09-27T04:15:48;4.90;;;1.48;;
43152;SDS011;28756;49.064;9.290;2022-09-27T04:18:14;3.30;;;1.40;;
43152;SDS011;28756;49.064;9.290;2022-09-27T04:20:39;5.25;;;1.88;;
43152;SDS011;28756;49.064;9.290;2022-09-27T04:23:05;3.88;;;1.50;;
43152;SDS011;28756;49.064;9.290;2022-09-27T04:25:31;6.80;;;1.67;;
43152;SDS011;28756;49.064;9.290;2022-09-27T04:27:57;3.78;;;1.75;;
43152;SDS011;28756;49.064;9.290;2022-09-27T04:30:24;5.65;;;1.55;;
43152;SDS011;28756;49.064;9.290;2022-09-27T04:32:50;2.47;;;1.30;;
43152;SDS011;28756;49.064;9.290;2022-09-27T04:35:16;5.78;;;1.10;;
43152;SDS011;28756;49.064;9.290;2022-09-27T04:38:00;2.30;;;1.00;;
43152;SDS011;28756;49.064;9.290;2022-09-27T04:40:26;3.15;;;1.30;;
43152;SDS011;28756;49.064;9.290;2022-09-27T04:42:52;3.63;;;1.17;;
43152;SDS011;28756;49.064;9.290;2022-09-27T04:45:18;2.40;;;1.30;;
43152;SDS011;28756;49.064;9.290;2022-09-27T04:47:48;3.65;;;1.15;;
43152;SDS011;28756;49.064;9.290;2022-09-27T04:50:14;3.53;;;1.20;;
43152;SDS011;28756;49.064;9.290;2022-09-27T04:52:41;2.30;;;1.30;;
43152;SDS011;28756;49.064;9.290;2022-09-27T04:55:08;6.22;;;1.60;;
43152;SDS011;28756;49.064;9.290;2022-09-27T04:57:34;3.63;;;1.48;;
43152;SDS011;28756;49.064;9.290;2022-09-27T05:00:01;5.15;;;1.85;;
43152;SDS011;28756;49.064;9.290;2022-09-27T05:02:29;3.53;;;1.40;;
43152;SDS011;28756;49.064;9.290;2022-09-27T05:04:55;4.00;;;1.30;;
43152;SDS011;28756;49.064;9.290;2022-09-27T05:07:23;5.93;;;1.60;;
43152;SDS011;28756;49.064;9.290;2022-09-27T05:09:50;4.45;;;1.25;;
43152;SDS011;28756;49.064;9.290;2022-09-27T05:12:17;4.55;;;1.45;;
43152;SDS011;28756;49.064;9.290;2022-09-27T05:14:43;5.43;;;1.30;;
43152;SDS011;28756;49.064;9.290;2022-09-27T05:17:09;2.97;;;1.25;;
43152;SDS011;28756;49.064;9.290;2022-09-27T05:19:35;7.35;;;1.50;;
43152;SDS011;28756;49.064;9.290;2022-09-27T05:22:03;4.35;;;1.50;;
43152;SDS011;28756;49.064;9.290;2022-09-27T05:24:30;4.22;;;1.30;;
43152;SDS011;28756;49.064;9.290;2022-09-27T05:26:57;5.35;;;1.40;;
43152;SDS011;28756;49.064;9.290;2022-09-27T05:29:24;5.47;;;1.20;;
43152;SDS011;28756;49.064;9.290;2022-09-27T05:31:50;2.75;;;1.13;;
43152;SDS011;28756;49.064;9.290;2022-09-27T05:34:16;2.90;;;1.40;;
43152;SDS011;28756;49.064;9.290;2022-09-27T05:36:45;3.13;;;1.20;;
43152;SDS011;28756;49.064;9.290;2022-09-27T05:39:12;3.30;;;1.10;;
43152;SDS011;28756;49.064;9.290;2022-09-27T05:41:38;2.03;;;1.10;;
43152;SDS011;28756;49.064;9.290;2022-09-27T05:44:16;2.67;;;1.00;;
43152;SDS011;28756;49.064;9.290;2022-09-27T05:46:51;2.95;;;1.33;;
43152;SDS011;28756;49.064;9.290;2022-09-27T05:49:16;3.75;;;1.23;;
43152;SDS011;28756;49.064;9.290;2022-09-27T05:51:42;3.67;;;1.20;;
43152;SDS011;28756;49.064;9.290;2022-09-27T05:54:08;1.92;;;1.00;;
43152;SDS011;28756;49.064;9.290;2022-09-27T05:56:33;3.67;;;1.27;;
43152;SDS011;28756;49.064;9.290;2022-09-27T05:58:59;3.20;;;1.08;;
43152;SDS011;28756;49.064;9.290;2022-09-27T06:01:25;3.55;;;1.20;;
43152;SDS011;28756;49.064;9.290;2022-09-27T06:03:51;3.00;;;1.20;;
43152;SDS011;28756;49.064;9.290;2022-09-27T06:06:18;1.88;;;1.00;;
43152;SDS011;28756;49.064;9.290;2022-09-27T06:08:47;3.22;;;1.17;;
43152;SDS011;28756;49.064;9.290;2022-09-27T06:11:13;3.40;;;1.20;;
43152;SDS011;28756;49.064;9.290;2022-09-27T06:13:39;2.97;;;1.10;;
43152;SDS011;28756;49.064;9.290;2022-09-27T06:16:06;1.88;;;1.02;;
43152;SDS011;28756;49.064;9.290;2022-09-27T06:18:34;2.95;;;1.23;;
43152;SDS011;28756;49.064;9.290;2022-09-27T06:21:00;2.42;;;0.90;;
43152;SDS011;28756;49.064;9.290;2022-09-27T06:23:28;4.25;;;1.10;;
43152;SDS011;28756;49.064;9.290;2022-09-27T06:26:02;4.55;;;1.20;;
43152;SDS011;28756;49.064;9.290;2022-09-27T06:28:30;2.08;;;1.00;;
43152;SDS011;28756;49.064;9.290;2022-09-27T06:30:58;2.75;;;0.90;;
43152;SDS011;28756;49.064;9.290;2022-09-27T06:33:25;3.05;;;1.00;;
43152;SDS011;28756;49.064;9.290;2022-09-27T06:35:54;2.40;;;1.13;;
43152;SDS011;28756;49.064;9.290;2022-09-27T06:38:20;4.30;;;1.42;;
43152;SDS011;28756;49.064;9.290;2022-09-27T06:40:47;3.50;;;1.08;;
43152;SDS011;28756;49.064;9.290;2022-09-27T06:43:14;1.75;;;0.90;;
43152;SDS011;28756;49.064;9.290;2022-09-27T06:45:43;1.65;;;1.00;;
43152;SDS011;28756;49.064;9.290;2022-09-27T06:48:10;1.90;;;0.95;;
43152;SDS011;28756;49.064;9.290;2022-09-27T06:50:39;2.38;;;1.10;;
43152;SDS011;28756;49.064;9.290;2022-09-27T06:53:08;2.65;;;1.13;;
43152;SDS011;28756;49.064;9.290;2022-09-27T06:55:36;2.47;;;1.30;;
43152;SDS011;28756;49.064;9.290;2022-09-27T06:58:02;3.13;;;1.08;;
43152;SDS011;28756;49.064;9.290;2022-09-27T07:00:48;2.85;;;1.10;;
43152;SDS011;28756;49.064;9.290;2022-09-27T07:03:15;1.67;;;1.00;;
43152;SDS011;28756;49.064;9.290;2022-09-27T07:05:41;1.73;;;1.10;;
43152;SDS011;28756;49.064;9.290;2022-09-27T07:08:10;2.13;;;0.98;;
43152;SDS011;28756;49.064;9.290;2022-09-27T07:10:36;2.78;;;1.40;;
43152;SDS011;28756;49.064;9.290;2022-09-27T07:13:07;1.52;;;0.88;;
43152;SDS011;28756;49.064;9.290;2022-09-27T07:15:35;2.78;;;1.00;;
43152;SDS011;28756;49.064;9.290;2022-09-27T07:18:04;2.50;;;1.00;;
43152;SDS011;28756;49.064;9.290;2022-09-27T07:20:32;2.85;;;1.30;;
43152;SDS011;28756;49.064;9.290;2022-09-27T07:23:03;1.50;;;0.82;;
43152;SDS011;28756;49.064;9.290;2022-09-27T07:25:30;1.25;;;0.77;;
43152;SDS011;28756;49.064;9.290;2022-09-27T07:28:01;1.75;;;0.88;;
43152;SDS011;28756;49.064;9.290;2022-09-27T07:30:29;1.65;;;1.00;;
43152;SDS011;28756;49.064;9.290;2022-09-27T07:32:56;0.90;;;0.70;;
43152;SDS011;28756;49.064;9.290;2022-09-27T07:35:24;1.83;;;0.90;;
43152;SDS011;28756;49.064;9.290;2022-09-27T07:37:50;1.40;;;0.82;;
43152;SDS011;28756;49.064;9.290;2022-09-27T07:40:16;1.10;;;0.73;;
43152;SDS011;28756;49.064;9.290;2022-09-27T07:42:42;0.93;;;0.70;;
43152;SDS011;28756;49.064;9.290;2022-09-27T07:45:08;0.95;;;0.73;;
43152;SDS011;28756;49.064;9.290;2022-09-27T07:47:36;1.10;;;0.70;;
43152;SDS011;28756;49.064;9.290;2022-09-27T07:50:04;1.23;;;0.80;;
43152;SDS011;28756;49.064;9.290;2022-09-27T07:52:37;0.75;;;0.60;;
43152;SDS011;28756;49.064;9.290;2022-09-27T07:55:09;3.17;;;0.70;;
43152;SDS011;28756;49.064;9.290;2022-09-27T07:57:37;2.20;;;0.70;;
43152;SDS011;28756;49.064;9.290;2022-09-27T08:00:04;1.38;;;0.80;;
43152;SDS011;28756;49.064;9.290;2022-09-27T08:02:33;1.38;;;0.55;;
43152;SDS011;28756;49.064;9.290;2022-09-27T08:04:59;1.48;;;0.60;;
43152;SDS011;28756;49.064;9.290;2022-09-27T08:07:26;1.00;;;0.63;;
43152;SDS011;28756;49.064;9.290;2022-09-27T08:09:52;1.00;;;0.70;;
43152;SDS011;28756;49.064;9.290;2022-09-27T08:12:18;2.35;;;0.80;;
43152;SDS011;28756;49.064;9.290;2022-09-27T08:14:45;1.70;;;0.80;;
43152;SDS011;28756;49.064;9.290;2022-09-27T08:17:12;0.60;;;0.60;;
43152;SDS011;28756;49.064;9.290;2022-09-27T08:19:38;3.15;;;0.60;;
43152;SDS011;28756;49.064;9.290;2022-09-27T08:22:05;1.77;;;0.70;;
43152;SDS011;28756;49.064;9.290;2022-09-27T08:24:32;2.20;;;0.77;;
43152;SDS011;28756;49.064;9.290;2022-09-27T08:26:58;0.80;;;0.63;;
43152;SDS011;28756;49.064;9.290;2022-09-27T08:29:25;0.85;;;0.60;;
43152;SDS011;28756;49.064;9.290;2022-09-27T08:31:51;0.73;;;0.60;;
43152;SDS011;28756;49.064;9.290;2022-09-27T08:34:21;1.70;;;0.70;;
43152;SDS011;28756;49.064;9.290;2022-09-27T08:36:47;1.00;;;0.60;;
43152;SDS011;28756;49.064;9.290;2022-09-27T08:39:13;1.23;;;0.60;;
43152;SDS011;28756;49.064;9.290;2022-09-27T08:41:42;1.38;;;0.70;;
43152;SDS011;28756;49.064;9.290;2022-09-27T08:44:26;3.15;;;1.25;;
43152;SDS011;28756;49.064;9.290;2022-09-27T08:47:12;4.30;;;1.30;;
43152;SDS011;28756;49.064;9.290;2022-09-27T08:53:06;1.52;;;0.75;;
43152;SDS011;28756;49.064;9.290;2022-09-27T08:55:47;1.02;;;0.70;;
43152;SDS011;28756;49.064;9.290;2022-09-27T09:00:52;1.20;;;0.80;;
43152;SDS011;28756;49.064;9.290;2022-09-27T09:03:24;1.63;;;0.80;;
43152;SDS011;28756;49.064;9.290;2022-09-27T09:09:13;1.58;;;0.82;;
43152;SDS011;28756;49.064;9.290;2022-09-27T09:17:51;0.88;;;0.68;;
43152;SDS011;28756;49.064;9.290;2022-09-27T09:30:04;1.58;;;0.80;;
43152;SDS011;28756;49.064;9.290;2022-09-27T09:32:52;1.15;;;0.90;;
43152;SDS011;28756;49.064;9.290;2022-09-27T09:35:58;1.17;;;0.80;;
43152;SDS011;28756;49.064;9.290;2022-09-27T09:38:39;2.67;;;0.90;;
43152;SDS011;28756;49.064;9.290;2022-09-27T09:41:38;3.15;;;1.10;;
43152;SDS011;28756;49.064;9.290;2022-09-27T09:44:20;1.73;;;1.00;;
43152;SDS011;28756;49.064;9.290;2022-09-27T09:46:52;7.95;;;1.30;;
43152;SDS011;28756;49.064;9.290;2022-09-27T09:49:30;1.35;;;0.82;;
43152;SDS011;28756;49.064;9.290;2022-09-27T09:52:10;3.03;;;1.20;;
43152;SDS011;28756;49.064;9.290;2022-09-27T09:54:45;4.15;;;1.17;;
43152;SDS011;28756;49.064;9.290;2022-09-27T09:57:27;2.55;;;1.10;;
43152;SDS011;28756;49.064;9.290;2022-09-27T10:00:13;2.25;;;1.10;;
43152;SDS011;28756;49.064;9.290;2022-09-27T10:02:46;2.05;;;0.93;;
43152;SDS011;28756;49.064;9.290;2022-09-27T10:05:14;2.33;;;1.02;;
43152;SDS011;28756;49.064;9.290;2022-09-27T10:07:45;2.85;;;1.05;;
43152;SDS011;28756;49.064;9.290;2022-09-27T10:10:13;4.32;;;1.20;;
43152;SDS011;28756;49.064;9.290;2022-09-27T10:12:41;3.80;;;1.10;;
43152;SDS011;28756;49.064;9.290;2022-09-27T10:15:12;3.58;;;1.38;;
43152;SDS011;28756;49.064;9.290;2022-09-27T10:17:46;5.70;;;1.55;;
43152;SDS011;28756;49.064;9.290;2022-09-27T10:20:27;3.88;;;1.60;;
43152;SDS011;28756;49.064;9.290;2022-09-27T10:25:55;4.88;;;1.27;;
43152;SDS011;28756;49.064;9.290;2022-09-27T10:28:45;3.13;;;1.33;;
43152;SDS011;28756;49.064;9.290;2022-09-27T10:31:12;3.85;;;1.50;;
43152;SDS011;28756;49.064;9.290;2022-09-27T10:33:55;3.92;;;1.58;;
43152;SDS011;28756;49.064;9.290;2022-09-27T10:36:30;5.35;;;1.73;;
43152;SDS011;28756;49.064;9.290;2022-09-27T10:38:59;5.57;;;1.30;;
43152;SDS011;28756;49.064;9.290;2022-09-27T10:41:37;4.18;;;1.50;;
43152;SDS011;28756;49.064;9.290;2022-09-27T10:44:18;3.22;;;1.75;;
43152;SDS011;28756;49.064;9.290;2022-09-27T10:46:54;4.55;;;1.25;;
43152;SDS011;28756;49.064;9.290;2022-09-27T10:49:33;4.07;;;1.50;;
43152;SDS011;28756;49.064;9.290;2022-09-27T10:52:04;4.50;;;1.65;;
43152;SDS011;28756;49.064;9.290;2022-09-27T10:54:39;5.03;;;2.55;;
43152;SDS011;28756;49.064;9.290;2022-09-27T10:59:39;3.95;;;1.50;;
43152;SDS011;28756;49.064;9.290;2022-09-27T11:02:20;1.50;;;1.10;;
43152;SDS011;28756;49.064;9.290;2022-09-27T11:07:46;3.78;;;1.00;;
43152;SDS011;28756;49.064;9.290;2022-09-27T11:10:42;3.03;;;0.95;;
43152;SDS011;28756;49.064;9.290;2022-09-27T11:13:15;3.03;;;1.10;;
43152;SDS011;28756;49.064;9.290;2022-09-27T11:19:03;4.05;;;0.88;;
43152;SDS011;28756;49.064;9.290;2022-09-27T11:30:16;2.83;;;1.00;;
43152;SDS011;28756;49.064;9.290;2022-09-27T11:36:04;2.80;;;1.00;;
43152;SDS011;28756;49.064;9.290;2022-09-27T11:47:01;1.92;;;0.80;;
43152;SDS011;28756;49.064;9.290;2022-09-27T11:50:13;2.42;;;0.93;;
43152;SDS011;28756;49.064;9.290;2022-09-27T11:56:23;2.42;;;0.60;;
43152;SDS011;28756;49.064;9.290;2022-09-27T12:10:32;1.58;;;0.60;;
43152;SDS011;28756;49.064;9.290;2022-09-27T12:13:02;3.17;;;0.60;;
43152;SDS011;28756;49.064;9.290;2022-09-27T12:15:29;0.88;;;0.43;;
43152;SDS011;28756;49.064;9.290;2022-09-27T12:18:06;0.73;;;0.40;;
43152;SDS011;28756;49.064;9.290;2022-09-27T12:20:58;1.30;;;0.70;;
43152;SDS011;28756;49.064;9.290;2022-09-27T12:29:13;2.17;;;0.82;;
43152;SDS011;28756;49.064;9.290;2022-09-27T12:31:46;1.80;;;0.90;;
43152;SDS011;28756;49.064;9.290;2022-09-27T12:34:20;2.40;;;0.80;;
43152;SDS011;28756;49.064;9.290;2022-09-27T12:39:53;1.42;;;0.60;;
43152;SDS011;28756;49.064;9.290;2022-09-27T12:45:11;1.17;;;0.80;;
43152;SDS011;28756;49.064;9.290;2022-09-27T12:50:37;1.67;;;0.40;;
43152;SDS011;28756;49.064;9.290;2022-09-27T12:53:40;0.30;;;0.30;;
43152;SDS011;28756;49.064;9.290;2022-09-27T13:06:06;0.63;;;0.32;;
43152;SDS011;28756;49.064;9.290;2022-09-27T13:12:30;0.50;;;0.38;;
43152;SDS011;28756;49.064;9.290;2022-09-27T13:17:32;1.70;;;0.40;;
43152;SDS011;28756;49.064;9.290;2022-09-27T13:22:55;0.82;;;0.40;;
43152;SDS011;28756;49.064;9.290;2022-09-27T13:30:57;1.13;;;0.60;;
43152;SDS011;28756;49.064;9.290;2022-09-27T13:44:31;0.90;;;0.40;;
43152;SDS011;28756;49.064;9.290;2022-09-27T13:50:12;1.15;;;0.40;;
43152;SDS011;28756;49.064;9.290;2022-09-27T13:52:59;1.25;;;0.52;;
43152;SDS011;28756;49.064;9.290;2022-09-27T13:55:50;0.70;;;0.50;;
43152;SDS011;28756;49.064;9.290;2022-09-27T14:00:47;0.50;;;0.40;;
43152;SDS011;28756;49.064;9.290;2022-09-27T14:03:27;1.30;;;0.55;;
43152;SDS011;28756;49.064;9.290;2022-09-27T14:06:00;1.88;;;1.20;;
43152;SDS011;28756;49.064;9.290;2022-09-27T14:08:31;6.13;;;4.18;;
43152;SDS011;28756;49.064;9.290;2022-09-27T14:11:03;4.38;;;3.47;;
43152;SDS011;28756;49.064;9.290;2022-09-27T14:13:42;5.32;;;3.90;;
43152;SDS011;28756;49.064;9.290;2022-09-27T14:16:13;5.80;;;2.95;;
43152;SDS011;28756;49.064;9.290;2022-09-27T14:18:44;11.60;;;6.45;;
43152;SDS011;28756;49.064;9.290;2022-09-27T14:21:26;4.80;;;2.67;;
43152;SDS011;28756;49.064;9.290;2022-09-27T14:29:57;22.42;;;12.07;;
43152;SDS011;28756;49.064;9.290;2022-09-27T14:35:06;7.47;;;5.22;;
43152;SDS011;28756;49.064;9.290;2022-09-27T14:38:03;17.95;;;11.63;;
43152;SDS011;28756;49.064;9.290;2022-09-27T14:43:23;11.50;;;7.63;;
43152;SDS011;28756;49.064;9.290;2022-09-27T14:45:51;21.63;;;12.45;;
43152;SDS011;28756;49.064;9.290;2022-09-27T14:48:34;8.05;;;5.07;;
43152;SDS011;28756;49.064;9.290;2022-09-27T14:51:03;7.20;;;4.93;;
43152;SDS011;28756;49.064;9.290;2022-09-27T14:53:50;6.28;;;4.15;;
43152;SDS011;28756;49.064;9.290;2022-09-27T14:56:23;2.15;;;1.73;;
43152;SDS011;28756;49.064;9.290;2022-09-27T14:59:13;2.38;;;2.17;;
43152;SDS011;28756;49.064;9.290;2022-09-27T15:01:47;2.42;;;1.70;;
43152;SDS011;28756;49.064;9.290;2022-09-27T15:04:15;1.60;;;1.02;;
43152;SDS011;28756;49.064;9.290;2022-09-27T15:06:41;1.73;;;0.90;;
43152;SDS011;28756;49.064;9.290;2022-09-27T15:09:09;1.98;;;1.20;;
43152;SDS011;28756;49.064;9.290;2022-09-27T15:11:41;3.40;;;1.52;;
43152;SDS011;28756;49.064;9.290;2022-09-27T15:14:14;1.55;;;0.80;;
43152;SDS011;28756;49.064;9.290;2022-09-27T15:16:45;2.58;;;1.40;;
43152;SDS011;28756;49.064;9.290;2022-09-27T15:21:50;2.03;;;1.10;;
43152;SDS011;28756;49.064;9.290;2022-09-27T15:27:15;2.83;;;1.30;;
43152;SDS011;28756;49.064;9.290;2022-09-27T15:29:50;0.90;;;0.70;;
43152;SDS011;28756;49.064;9.290;2022-09-27T15:32:21;2.35;;;1.00;;
43152;SDS011;28756;49.064;9.290;2022-09-27T15:34:52;1.65;;;1.00;;
43152;SDS011;28756;49.064;9.290;2022-09-27T15:37:27;2.72;;;0.95;;
43152;SDS011;28756;49.064;9.290;2022-09-27T15:43:02;1.67;;;0.90;;
43152;SDS011;28756;49.064;9.290;2022-09-27T15:45:28;1.10;;;0.57;;
43152;SDS011;28756;49.064;9.290;2022-09-27T15:48:13;0.70;;;0.60;;
43152;SDS011;28756;49.064;9.290;2022-09-27T15:50:41;0.70;;;0.60;;
43152;SDS011;28756;49.064;9.290;2022-09-27T15:53:08;1.13;;;0.73;;
43152;SDS011;28756;49.064;9.290;2022-09-27T15:55:37;1.90;;;0.70;;
43152;SDS011;28756;49.064;9.290;2022-09-27T15:58:11;0.90;;;0.50;;
43152;SDS011;28756;49.064;9.290;2022-09-27T16:03:29;2.88;;;1.90;;
43152;SDS011;28756;49.064;9.290;2022-09-27T16:05:57;3.75;;;2.35;;
43152;SDS011;28756;49.064;9.290;2022-09-27T16:08:28;14.45;;;10.70;;
43152;SDS011;28756;49.064;9.290;2022-09-27T16:10:54;8.57;;;6.70;;
43152;SDS011;28756;49.064;9.290;2022-09-27T16:13:23;3.97;;;3.20;;
43152;SDS011;28756;49.064;9.290;2022-09-27T16:15:49;2.65;;;1.90;;
43152;SDS011;28756;49.064;9.290;2022-09-27T16:18:15;2.00;;;1.80;;
43152;SDS011;28756;49.064;9.290;2022-09-27T16:20:42;2.35;;;1.25;;
43152;SDS011;28756;49.064;9.290;2022-09-27T16:23:07;2.08;;;1.20;;
43152;SDS011;28756;49.064;9.290;2022-09-27T16:25:33;2.58;;;1.00;;
43152;SDS011;28756;49.064;9.290;2022-09-27T16:28:00;2.53;;;1.40;;
43152;SDS011;28756;49.064;9.290;2022-09-27T16:30:27;3.17;;;1.38;;
43152;SDS011;28756;49.064;9.290;2022-09-27T16:32:54;1.33;;;0.93;;
43152;SDS011;28756;49.064;9.290;2022-09-27T16:35:21;2.38;;;1.10;;
43152;SDS011;28756;49.064;9.290;2022-09-27T16:37:48;2.75;;;1.25;;
43152;SDS011;28756;49.064;9.290;2022-09-27T16:40:13;1.92;;;1.48;;
43152;SDS011;28756;49.064;9.290;2022-09-27T16:42:42;2.35;;;1.30;;
43152;SDS011;28756;49.064;9.290;2022-09-27T16:45:09;2.35;;;1.40;;
43152;SDS011;28756;49.064;9.290;2022-09-27T16:47:35;3.00;;;1.40;;
43152;SDS011;28756;49.064;9.290;2022-09-27T16:50:02;3.40;;;1.25;;
43152;SDS011;28756;49.064;9.290;2022-09-27T16:52:47;2.75;;;1.50;;
43152;SDS011;28756;49.064;9.290;2022-09-27T16:55:14;3.72;;;1.40;;
43152;SDS011;28756;49.064;9.290;2022-09-27T16:57:48;2.58;;;1.20;;
43152;SDS011;28756;49.064;9.290;2022-09-27T17:00:15;3.50;;;1.10;;
43152;SDS011;28756;49.064;9.290;2022-09-27T17:02:42;1.85;;;1.05;;
43152;SDS011;28756;49.064;9.290;2022-09-27T17:05:12;1.35;;;0.73;;
43152;SDS011;28756;49.064;9.290;2022-09-27T17:07:38;2.88;;;1.00;;
43152;SDS011;28756;49.064;9.290;2022-09-27T17:10:05;2.90;;;0.80;;
43152;SDS011;28756;49.064;9.290;2022-09-27T17:12:32;2.47;;;1.00;;
43152;SDS011;28756;49.064;9.290;2022-09-27T17:14:58;3.50;;;0.88;;
43152;SDS011;28756;49.064;9.290;2022-09-27T17:17:24;1.55;;;0.90;;
43152;SDS011;28756;49.064;9.290;2022-09-27T17:19:50;2.55;;;1.00;;
43152;SDS011;28756;49.064;9.290;2022-09-27T17:22:16;2.95;;;1.02;;
43152;SDS011;28756;49.064;9.290;2022-09-27T17:24:42;1.95;;;1.50;;
43152;SDS011;28756;49.064;9.290;2022-09-27T17:27:08;1.50;;;1.02;;
43152;SDS011;28756;49.064;9.290;2022-09-27T17:29:35;1.65;;;0.85;;
43152;SDS011;28756;49.064;9.290;2022-09-27T17:32:02;3.65;;;1.45;;
43152;SDS011;28756;49.064;9.290;2022-09-27T17:34:32;4.25;;;1.20;;
43152;SDS011;28756;49.064;9.290;2022-09-27T17:36:59;3.58;;;1.38;;
43152;SDS011;28756;49.064;9.290;2022-09-27T17:39:25;2.00;;;1.70;;
43152;SDS011;28756;49.064;9.290;2022-09-27T17:41:51;3.13;;;1.52;;
43152;SDS011;28756;49.064;9.290;2022-09-27T17:44:17;2.05;;;1.10;;
43152;SDS011;28756;49.064;9.290;2022-09-27T17:46:44;1.30;;;1.20;;
43152;SDS011;28756;49.064;9.290;2022-09-27T17:49:11;2.85;;;1.08;;
43152;SDS011;28756;49.064;9.290;2022-09-27T17:51:56;2.13;;;1.10;;
43152;SDS011;28756;49.064;9.290;2022-09-27T17:54:23;2.17;;;1.02;;
43152;SDS011;28756;49.064;9.290;2022-09-27T17:56:51;1.70;;;1.10;;
43152;SDS011;28756;49.064;9.290;2022-09-27T17:59:17;1.85;;;1.10;;
43152;SDS011;28756;49.064;9.290;2022-09-27T18:01:44;2.28;;;1.13;;
43152;SDS011;28756;49.064;9.290;2022-09-27T18:04:12;2.25;;;0.93;;
43152;SDS011;28756;49.064;9.290;2022-09-27T18:06:42;1.67;;;1.13;;
43152;SDS011;28756;49.064;9.290;2022-09-27T18:09:10;4.15;;;1.80;;
43152;SDS011;28756;49.064;9.290;2022-09-27T18:11:39;2.00;;;1.30;;
43152;SDS011;28756;49.064;9.290;2022-09-27T18:14:05;2.63;;;1.30;;